createdAt,value
2018-02-15T00:00:18.413Z,116.90
2018-02-15T00:02:46.161Z,110.57
2018-02-15T00:05:13.969Z,89.18
2018-02-15T00:07:41.731Z,93.45
2018-02-15T00:10:10.240Z,91.10
2018-02-15T00:12:38.041Z,84.28
2018-02-15T00:15:05.793Z,84.70
2018-02-15T00:17:33.545Z,87.25
2018-02-15T00:20:02.125Z,95.38
2018-02-15T00:22:29.870Z,84.87
2018-02-15T00:24:57.617Z,102.22
2018-02-15T00:27:25.429Z,84.37
2018-02-15T00:29:53.173Z,84.32
2018-02-15T00:32:20.922Z,95.45
2018-02-15T00:34:48.750Z,93.53
2018-02-15T00:37:17.273Z,87.05
2018-02-15T00:39:45.017Z,91.25
2018-02-15T00:42:12.816Z,96.03
2018-02-15T00:44:40.563Z,88.10
2018-02-15T00:47:08.305Z,99.15
2018-02-15T00:49:36.104Z,92.15
2018-02-15T00:52:03.856Z,109.00
2018-02-15T00:54:31.610Z,101.78
2018-02-15T00:56:59.429Z,102.70
2018-02-15T00:59:27.950Z,100.40
2018-02-15T01:01:55.705Z,89.70
2018-02-15T01:04:23.505Z,96.37
2018-02-15T01:06:51.265Z,97.43
2018-02-15T01:09:19.021Z,81.68
2018-02-15T01:11:46.826Z,88.22
2018-02-15T01:14:14.578Z,99.15
2018-02-15T01:16:43.095Z,78.68
2018-02-15T01:19:10.893Z,89.45
2018-02-15T01:21:38.640Z,109.87
2018-02-15T01:24:06.385Z,87.85
2018-02-15T01:26:34.193Z,86.95
2018-02-15T01:29:02.705Z,89.40
2018-02-15T01:31:30.473Z,107.22
2018-02-15T01:33:58.278Z,92.22
2018-02-15T01:36:26.065Z,110.20
2018-02-15T01:38:54.584Z,96.25
2018-02-15T01:41:22.398Z,101.93
2018-02-15T01:43:50.150Z,93.45
2018-02-15T01:46:17.910Z,104.80
2018-02-15T01:48:45.728Z,99.53
2018-02-15T01:51:13.477Z,84.62
2018-02-15T01:53:41.227Z,98.15
2018-02-15T01:56:09.033Z,85.87
2018-02-15T01:58:36.785Z,102.55
2018-02-15T02:01:04.552Z,104.60
2018-02-15T02:03:32.522Z,105.82
2018-02-15T02:06:00.281Z,95.70
2018-02-15T02:08:28.089Z,95.65
2018-02-15T02:10:56.655Z,82.82
2018-02-15T02:13:24.403Z,90.45
2018-02-15T02:15:52.153Z,83.00
2018-02-15T02:18:19.958Z,98.45
2018-02-15T02:20:48.498Z,99.15
2018-02-15T02:23:16.274Z,101.05
2018-02-15T02:25:44.195Z,99.32
2018-02-15T02:28:11.945Z,99.50
2018-02-15T02:30:39.713Z,88.07
2018-02-15T02:33:07.518Z,94.45
2018-02-15T02:35:36.041Z,87.28
2018-02-15T02:38:04.559Z,84.15
2018-02-15T02:40:32.370Z,93.97
2018-02-15T02:43:00.888Z,87.10
2018-02-15T02:45:28.642Z,93.03
2018-02-15T02:47:56.452Z,94.32
2018-02-15T02:50:24.206Z,92.45
2018-02-15T02:52:51.949Z,90.70
2018-02-15T02:55:19.749Z,82.93
2018-02-15T02:57:47.503Z,94.20
2018-02-15T03:00:15.249Z,79.87
2018-02-15T03:02:43.052Z,106.25
2018-02-15T03:05:11.578Z,121.80
2018-02-15T03:07:39.337Z,94.75
2018-02-15T03:10:07.143Z,96.43
2018-02-15T03:12:35.650Z,92.15
2018-02-15T03:15:03.445Z,102.07
2018-02-15T03:17:32.016Z,101.00
2018-02-15T03:19:59.761Z,99.18
2018-02-15T03:22:27.513Z,106.03
2018-02-15T03:24:55.320Z,89.35
2018-02-15T03:27:23.067Z,100.82
2018-02-15T03:29:50.819Z,102.60
2018-02-15T03:32:18.625Z,96.82
2018-02-15T03:34:46.377Z,103.57
2018-02-15T03:37:14.147Z,103.87
2018-02-15T03:39:41.945Z,102.97
2018-02-15T03:42:09.715Z,99.68
2018-02-15T03:44:37.470Z,104.38
2018-02-15T03:47:05.275Z,104.43
2018-02-15T03:49:33.025Z,97.25
2018-02-15T03:52:00.765Z,97.07
2018-02-15T03:54:28.570Z,97.07
2018-02-15T03:56:56.313Z,94.95
2018-02-15T03:59:24.056Z,104.75
2018-02-15T04:01:51.863Z,101.32
2018-02-15T04:04:19.613Z,94.53
2018-02-15T04:06:47.370Z,108.00
2018-02-15T04:09:15.186Z,97.68
2018-02-15T04:11:42.952Z,92.20
2018-02-15T04:14:10.704Z,110.43
2018-02-15T04:16:39.273Z,105.75
2018-02-15T04:19:07.797Z,99.28
2018-02-15T04:21:35.586Z,102.00
2018-02-15T04:24:03.380Z,93.75
2018-02-15T04:26:31.889Z,99.47
2018-02-15T04:28:59.651Z,111.37
2018-02-15T04:31:27.481Z,100.62
2018-02-15T04:33:56.000Z,87.25
2018-02-15T04:36:23.748Z,103.72
2018-02-15T04:38:51.556Z,109.10
2018-02-15T04:41:19.307Z,78.87
2018-02-15T04:43:47.065Z,92.28
2018-02-15T04:46:14.869Z,86.97
2018-02-15T04:48:43.380Z,101.25
2018-02-15T04:51:11.126Z,88.18
2018-02-15T04:53:39.696Z,92.97
2018-02-15T04:56:08.206Z,84.30
2018-02-15T04:58:35.953Z,98.82
2018-02-15T05:01:03.761Z,88.62
2018-02-15T05:03:31.515Z,94.37
2018-02-15T05:05:59.372Z,92.57
2018-02-15T05:08:27.175Z,88.60
2018-02-15T05:10:54.917Z,87.15
2018-02-15T05:13:22.697Z,91.63
2018-02-15T05:15:50.495Z,98.00
2018-02-15T05:18:18.249Z,92.20
2018-02-15T05:20:46.004Z,91.28
2018-02-15T05:23:13.809Z,97.25
2018-02-15T05:25:41.562Z,100.80
2018-02-15T05:28:09.310Z,83.80
2018-02-15T05:30:37.114Z,91.25
2018-02-15T05:33:04.860Z,107.00
2018-02-15T05:35:32.646Z,96.07
2018-02-15T05:38:00.453Z,90.93
2018-02-15T05:40:28.203Z,95.72
2018-02-15T05:42:55.952Z,107.35
2018-02-15T05:45:24.540Z,94.93
2018-02-15T05:47:53.057Z,88.85
2018-02-15T05:50:20.815Z,84.82
2018-02-15T05:52:48.619Z,102.43
2018-02-15T05:55:16.362Z,81.03
2018-02-15T05:57:44.127Z,101.30
2018-02-15T06:00:11.931Z,101.12
2018-02-15T06:02:40.454Z,109.20
2018-02-15T06:05:08.210Z,92.32
2018-02-15T06:07:36.012Z,85.72
2018-02-15T06:10:03.761Z,97.57
2018-02-15T06:12:31.516Z,91.10
2018-02-15T06:14:59.319Z,86.97
2018-02-15T06:17:27.064Z,94.97
2018-02-15T06:19:54.825Z,109.53
2018-02-15T06:22:22.638Z,103.68
2018-02-15T06:24:50.404Z,72.78
2018-02-15T06:27:18.159Z,92.00
2018-02-15T06:29:45.986Z,90.80
2018-02-15T06:32:14.521Z,103.07
2018-02-15T06:34:42.281Z,94.70
2018-02-15T06:37:10.094Z,85.78
2018-02-15T06:39:38.611Z,81.12
2018-02-15T06:42:06.366Z,108.53
2018-02-15T06:44:34.245Z,97.95
2018-02-15T06:47:02.000Z,112.37
2018-02-15T06:49:29.793Z,112.95
2018-02-15T06:51:57.594Z,98.30
2018-02-15T06:54:25.346Z,98.37
2018-02-15T06:56:53.861Z,98.03
2018-02-15T06:59:21.669Z,97.78
2018-02-15T07:01:49.451Z,94.85
2018-02-15T07:04:17.976Z,92.45
2018-02-15T07:06:45.784Z,105.63
2018-02-15T07:09:14.302Z,110.18
2018-02-15T07:11:42.057Z,95.43
2018-02-15T07:14:09.891Z,99.43
2018-02-15T07:16:38.405Z,87.03
2018-02-15T07:19:06.150Z,95.18
2018-02-15T07:21:33.946Z,88.87
2018-02-15T07:24:01.693Z,99.03
2018-02-15T07:26:29.513Z,91.90
2018-02-15T07:28:57.605Z,85.57
2018-02-15T07:31:25.350Z,112.20
2018-02-15T07:33:53.870Z,77.90
2018-02-15T07:36:21.670Z,95.87
2018-02-15T07:38:49.438Z,103.10
2018-02-15T07:41:17.193Z,105.63
2018-02-15T07:43:45.057Z,98.18
2018-02-15T07:46:12.838Z,90.35
2018-02-15T07:48:41.370Z,87.80
2018-02-15T07:51:09.176Z,95.97
2018-02-15T07:53:36.941Z,96.95
2018-02-15T07:56:05.466Z,89.82
2018-02-15T07:58:33.286Z,94.62
2018-02-15T08:01:01.821Z,111.88
2018-02-15T08:03:29.569Z,89.25
2018-02-15T08:05:57.380Z,105.22
2018-02-15T08:08:25.126Z,84.30
2018-02-15T08:10:52.874Z,104.93
2018-02-15T08:13:20.686Z,87.32
2018-02-15T08:15:49.199Z,95.07
2018-02-15T08:18:16.949Z,93.70
2018-02-15T08:20:44.754Z,90.62
2018-02-15T08:23:12.508Z,96.50
2018-02-15T08:25:40.319Z,85.97
2018-02-15T08:28:08.894Z,90.15
2018-02-15T08:30:37.410Z,118.07
2018-02-15T08:33:05.165Z,102.47
2018-02-15T08:35:32.965Z,95.85
2018-02-15T08:38:00.709Z,93.03
2018-02-15T08:40:28.462Z,109.85
2018-02-15T08:42:56.267Z,105.47
2018-02-15T08:45:24.042Z,111.18
2018-02-15T08:47:52.555Z,86.80
2018-02-15T08:50:20.361Z,94.18
2018-02-15T08:52:48.253Z,108.18
2018-02-15T08:55:16.769Z,119.60
2018-02-15T08:57:44.572Z,101.10
2018-02-15T09:00:12.321Z,99.97
2018-02-15T09:02:40.081Z,113.68
2018-02-15T09:05:07.885Z,90.87
2018-02-15T09:07:36.425Z,97.80
2018-02-15T09:10:04.181Z,106.95
2018-02-15T09:12:31.986Z,102.22
2018-02-15T09:15:00.530Z,137.15
2018-02-15T09:17:28.286Z,162.05
2018-02-15T09:19:56.111Z,120.07
2018-02-15T09:22:23.857Z,111.95
2018-02-15T09:24:51.622Z,102.97
2018-02-15T09:27:19.484Z,129.52
2018-02-15T09:29:47.233Z,132.25
2018-02-15T09:32:15.768Z,140.48
2018-02-15T09:34:43.585Z,143.87
2018-02-15T09:37:11.370Z,157.32
2018-02-15T09:39:39.118Z,137.85
2018-02-15T09:42:07.142Z,108.47
2018-02-15T09:44:34.895Z,99.20
2018-02-15T09:47:02.785Z,97.12
2018-02-15T09:49:31.361Z,83.57
2018-02-15T09:51:59.121Z,84.13
2018-02-15T09:54:26.907Z,87.60
2018-02-15T09:56:54.726Z,89.00
2018-02-15T09:59:22.473Z,80.78
2018-02-15T10:01:51.136Z,72.57
2018-02-15T10:04:18.936Z,79.25
2018-02-15T10:06:46.809Z,75.57
2018-02-15T10:09:14.565Z,77.30
2018-02-15T10:11:42.369Z,88.97
2018-02-15T10:14:10.118Z,79.62
2018-02-15T10:16:38.636Z,66.80
2018-02-15T10:19:06.432Z,82.15
2018-02-15T10:21:34.180Z,68.57
2018-02-15T10:24:02.150Z,67.40
2018-02-15T10:26:29.979Z,71.18
2018-02-15T10:28:57.740Z,73.35
2018-02-15T10:31:25.486Z,63.80
2018-02-15T10:33:53.287Z,67.87
2018-02-15T10:36:21.804Z,73.20
2018-02-15T10:38:49.549Z,66.80
2018-02-15T10:41:17.345Z,68.32
2018-02-15T10:43:46.039Z,88.95
2018-02-15T10:46:13.822Z,68.30
2018-02-15T10:48:41.625Z,70.07
2018-02-15T10:51:09.380Z,61.25
2018-02-15T10:53:37.324Z,75.72
2018-02-15T10:56:05.120Z,81.43
2018-02-15T10:58:32.875Z,68.93
2018-02-15T11:01:06.261Z,78.70
2018-02-15T11:03:34.023Z,67.20
2018-02-15T11:06:01.780Z,66.82
2018-02-15T11:08:29.593Z,75.65
2018-02-15T11:10:57.332Z,67.78
2018-02-15T11:13:25.077Z,64.15
2018-02-15T11:15:52.889Z,60.33
2018-02-15T11:18:20.639Z,84.37
2018-02-15T11:20:48.449Z,76.32
2018-02-15T11:23:16.268Z,71.87
2018-02-15T11:25:44.016Z,58.50
2018-02-15T11:28:12.528Z,62.62
2018-02-15T11:30:40.327Z,58.85
2018-02-15T11:33:08.078Z,59.47
2018-02-15T11:35:35.838Z,74.62
2018-02-15T11:38:03.654Z,57.22
2018-02-15T11:40:31.402Z,61.37
2018-02-15T11:42:59.924Z,69.50
2018-02-15T11:45:27.737Z,65.60
2018-02-15T11:47:56.253Z,77.53
2018-02-15T11:50:23.993Z,60.95
2018-02-15T11:52:52.566Z,50.92
2018-02-15T11:55:21.077Z,66.57
2018-02-15T11:57:48.821Z,56.55
2018-02-15T12:00:16.621Z,53.60
2018-02-15T12:02:44.368Z,57.08
2018-02-15T12:05:12.122Z,51.37
2018-02-15T12:07:39.933Z,61.65
2018-02-15T12:10:07.682Z,57.85
2018-02-15T12:12:35.441Z,53.40
2018-02-15T12:15:03.258Z,63.00
2018-02-15T12:17:31.000Z,67.72
2018-02-15T12:19:59.516Z,53.20
2018-02-15T12:22:27.322Z,46.00
2018-02-15T12:24:55.069Z,46.88
2018-02-15T12:27:22.817Z,47.58
2018-02-15T12:29:50.614Z,56.88
2018-02-15T12:32:18.360Z,54.58
2018-02-15T12:34:46.111Z,54.88
2018-02-15T12:37:13.911Z,53.50
2018-02-15T12:39:42.431Z,38.28
2018-02-15T12:42:10.181Z,45.20
2018-02-15T12:44:37.981Z,47.83
2018-02-15T12:47:05.770Z,46.22
2018-02-15T12:49:34.293Z,42.25
2018-02-15T12:52:02.090Z,46.78
2018-02-15T12:54:29.838Z,44.13
2018-02-15T12:56:57.589Z,47.42
2018-02-15T12:59:25.450Z,53.35
2018-02-15T13:01:53.225Z,48.38
2018-02-15T13:04:21.754Z,44.35
2018-02-15T13:06:50.317Z,34.85
2018-02-15T13:09:18.065Z,36.72
2018-02-15T13:11:45.809Z,44.17
2018-02-15T13:14:13.617Z,42.97
2018-02-15T13:16:53.993Z,36.35
2018-02-15T13:19:33.677Z,49.40
2018-02-15T13:22:01.433Z,50.15
2018-02-15T13:24:29.181Z,42.35
2018-02-15T13:26:56.984Z,50.15
2018-02-15T13:29:24.729Z,58.97
2018-02-15T13:31:52.468Z,44.90
2018-02-15T13:34:21.090Z,53.35
2018-02-15T13:36:49.192Z,46.90
2018-02-15T13:39:16.936Z,40.53
2018-02-15T13:41:45.509Z,44.08
2018-02-15T13:44:14.020Z,43.92
2018-02-15T13:46:41.772Z,49.17
2018-02-15T13:49:09.570Z,36.50
2018-02-15T13:51:37.326Z,41.67
2018-02-15T13:54:05.073Z,52.33
2018-02-15T13:56:32.875Z,43.65
2018-02-15T13:59:00.623Z,48.10
2018-02-15T14:01:28.370Z,51.78
2018-02-15T14:03:56.170Z,41.25
2018-02-15T14:06:23.917Z,45.97
2018-02-15T14:08:51.661Z,42.33
2018-02-15T14:11:21.088Z,36.72
2018-02-15T14:13:48.835Z,46.70
2018-02-15T14:16:16.605Z,41.25
2018-02-15T14:18:44.427Z,41.53
2018-02-15T14:21:12.169Z,45.70
2018-02-15T14:23:39.963Z,41.28
2018-02-15T14:26:07.761Z,40.65
2018-02-15T14:28:35.520Z,45.72
2018-02-15T14:31:03.270Z,46.25
2018-02-15T14:33:31.069Z,42.05
2018-02-15T14:35:59.577Z,36.25
2018-02-15T14:38:27.326Z,39.33
2018-02-15T14:40:55.128Z,43.00
2018-02-15T14:43:23.641Z,41.75
2018-02-15T14:45:51.393Z,47.35
2018-02-15T14:48:19.193Z,40.75
2018-02-15T14:50:46.943Z,47.42
2018-02-15T14:53:15.462Z,38.42
2018-02-15T14:55:43.280Z,48.08
2018-02-15T14:58:11.790Z,50.35
2018-02-15T15:00:39.531Z,45.80
2018-02-15T15:03:08.093Z,40.75
2018-02-15T15:05:35.844Z,44.40
2018-02-15T15:08:03.590Z,32.17
2018-02-15T15:10:31.398Z,44.45
2018-02-15T15:12:59.909Z,42.17
2018-02-15T15:15:27.651Z,36.30
2018-02-15T15:17:55.456Z,32.92
2018-02-15T15:20:23.958Z,40.35
2018-02-15T15:22:51.712Z,35.33
2018-02-15T15:25:19.513Z,34.95
2018-02-15T15:27:47.270Z,45.75
2018-02-15T15:30:15.022Z,34.97
2018-02-15T15:32:43.772Z,39.15
2018-02-15T15:35:11.517Z,34.28
2018-02-15T15:37:39.290Z,32.55
2018-02-15T15:40:07.107Z,32.13
2018-02-15T15:42:34.925Z,36.53
2018-02-15T15:45:02.686Z,32.70
2018-02-15T15:47:30.495Z,32.08
2018-02-15T15:49:58.567Z,32.90
2018-02-15T15:52:26.334Z,33.13
2018-02-15T15:54:54.135Z,32.40
2018-02-15T15:57:21.906Z,37.33
2018-02-15T15:59:49.656Z,38.88
2018-02-15T16:02:17.445Z,34.75
2018-02-15T16:04:46.209Z,33.92
2018-02-15T16:07:16.026Z,32.92
2018-02-15T16:09:45.683Z,31.48
2018-02-15T16:12:13.973Z,33.50
2018-02-15T16:14:43.049Z,37.20
2018-02-15T16:17:12.210Z,34.42
2018-02-15T16:19:41.067Z,32.20
2018-02-15T16:22:10.015Z,30.05
2018-02-15T16:24:37.852Z,38.78
2018-02-15T16:27:05.728Z,39.47
2018-02-15T16:29:34.326Z,37.90
2018-02-15T16:32:02.167Z,38.10
2018-02-15T16:34:30.703Z,37.90
2018-02-15T16:36:58.515Z,37.65
2018-02-15T16:39:26.326Z,33.35
2018-02-15T16:41:54.103Z,33.78
2018-02-15T16:44:21.862Z,38.88
2018-02-15T16:46:49.670Z,36.83
2018-02-15T16:49:17.420Z,41.40
2018-02-15T16:51:45.931Z,36.58
2018-02-15T16:54:13.735Z,30.65
2018-02-15T16:56:41.491Z,35.85
2018-02-15T16:59:09.237Z,39.92
2018-02-15T17:01:37.064Z,34.40
2018-02-15T17:04:04.813Z,34.15
2018-02-15T17:06:33.321Z,38.05
2018-02-15T17:09:01.125Z,32.67
2018-02-15T17:11:28.871Z,39.85
2018-02-15T17:13:57.386Z,46.22
2018-02-15T17:16:25.192Z,39.88
2018-02-15T17:18:52.937Z,29.83
2018-02-15T17:21:20.722Z,42.03
2018-02-15T17:23:48.529Z,47.92
2018-02-15T17:26:16.282Z,42.08
2018-02-15T17:28:44.030Z,44.75
2018-02-15T17:31:11.845Z,41.05
2018-02-15T17:33:39.614Z,47.72
2018-02-15T17:36:07.366Z,44.15
2018-02-15T17:38:35.164Z,46.33
2018-02-15T17:41:02.947Z,45.55
2018-02-15T17:43:30.708Z,46.88
2018-02-15T17:46:03.886Z,50.80
2018-02-15T17:48:31.971Z,46.20
2018-02-15T17:50:59.721Z,45.75
2018-02-15T17:53:27.666Z,39.90
2018-02-15T17:55:55.426Z,46.60
2018-02-15T17:58:23.248Z,47.83
2018-02-15T18:00:51.810Z,42.42
2018-02-15T18:03:19.562Z,43.28
2018-02-15T18:05:47.313Z,46.13
2018-02-15T18:08:15.125Z,42.55
2018-02-15T18:10:44.025Z,54.47
2018-02-15T18:13:22.729Z,51.30
2018-02-15T18:16:00.491Z,42.45
2018-02-15T18:18:29.070Z,51.30
2018-02-15T18:20:57.029Z,53.38
2018-02-15T18:23:25.640Z,48.85
2018-02-15T18:25:54.527Z,49.58
2018-02-15T18:28:22.409Z,44.88
2018-02-15T18:30:50.196Z,44.40
2018-02-15T18:33:18.974Z,46.55
2018-02-15T18:35:46.723Z,46.58
2018-02-15T18:38:14.570Z,43.00
2018-02-15T18:40:42.402Z,51.10
2018-02-15T18:43:10.217Z,43.17
2018-02-15T18:45:37.982Z,51.63
2018-02-15T18:48:08.581Z,52.88
2018-02-15T18:50:37.434Z,44.25
2018-02-15T18:53:05.262Z,53.70
2018-02-15T18:55:33.085Z,57.62
2018-02-15T18:58:01.622Z,54.25
2018-02-15T19:00:29.509Z,44.67
2018-02-15T19:02:57.349Z,47.88
2018-02-15T19:05:25.187Z,46.40
2018-02-15T19:07:53.113Z,41.37
2018-02-15T19:10:20.917Z,48.53
2018-02-15T19:12:48.677Z,54.42
2018-02-15T19:15:16.441Z,42.45
2018-02-15T19:17:44.326Z,42.72
2018-02-15T19:20:12.090Z,44.80
2018-02-15T19:22:39.849Z,51.80
2018-02-15T19:25:07.659Z,47.65
2018-02-15T19:27:35.424Z,49.88
2018-02-15T19:30:03.181Z,43.45
2018-02-15T19:32:30.980Z,47.58
2018-02-15T19:34:58.865Z,40.63
2018-02-15T19:37:26.630Z,56.08
2018-02-15T19:39:54.429Z,49.00
2018-02-15T19:42:22.249Z,42.58
2018-02-15T19:44:50.002Z,42.60
2018-02-15T19:47:17.854Z,45.85
2018-02-15T19:49:45.597Z,45.47
2018-02-15T19:52:14.113Z,43.05
2018-02-15T19:54:41.912Z,50.40
2018-02-15T19:57:09.668Z,44.65
2018-02-15T19:59:37.462Z,49.03
2018-02-15T20:02:06.028Z,43.47
2018-02-15T20:04:33.786Z,49.40
2018-02-15T20:07:01.556Z,49.30
2018-02-15T20:09:29.359Z,41.95
2018-02-15T20:11:57.136Z,47.65
2018-02-15T20:14:24.888Z,48.72
2018-02-15T20:16:52.688Z,43.87
2018-02-15T20:19:20.432Z,39.83
2018-02-15T20:21:48.177Z,46.45
2018-02-15T20:24:15.998Z,52.88
2018-02-15T20:26:50.239Z,41.10
2018-02-15T20:29:18.043Z,48.00
2018-02-15T20:31:45.794Z,41.75
2018-02-15T20:34:13.553Z,45.95
2018-02-15T20:36:41.465Z,36.95
2018-02-15T20:39:15.580Z,42.20
2018-02-15T20:41:44.162Z,39.80
2018-02-15T20:44:12.697Z,45.35
2018-02-15T20:46:40.442Z,43.25
2018-02-15T20:49:14.054Z,41.60
2018-02-15T20:51:47.561Z,41.22
2018-02-15T20:54:20.934Z,55.65
2018-02-15T20:56:48.708Z,44.88
2018-02-15T20:59:16.481Z,49.40
2018-02-15T21:01:44.362Z,41.67
2018-02-15T21:04:12.128Z,52.67
2018-02-15T21:06:39.910Z,46.13
2018-02-15T21:09:07.712Z,45.45
2018-02-15T21:11:35.477Z,47.05
2018-02-15T21:14:04.072Z,37.55
2018-02-15T21:16:31.893Z,47.60
2018-02-15T21:18:59.657Z,50.85
2018-02-15T21:21:27.488Z,43.22
2018-02-15T21:23:56.068Z,49.30
2018-02-15T21:26:24.606Z,52.47
2018-02-15T21:28:52.367Z,44.88
2018-02-15T21:31:20.331Z,44.05
2018-02-15T21:33:48.138Z,43.58
2018-02-15T21:36:16.653Z,42.00
2018-02-15T21:38:44.522Z,50.55
2018-02-15T21:41:12.308Z,41.67
2018-02-15T21:43:40.097Z,45.53
2018-02-15T21:46:08.693Z,47.20
2018-02-15T21:48:37.231Z,39.63
2018-02-15T21:51:05.015Z,49.45
2018-02-15T21:53:32.816Z,39.70
2018-02-15T21:56:00.573Z,39.53
2018-02-15T21:58:29.077Z,37.03
2018-02-15T22:00:56.880Z,44.72
2018-02-15T22:03:24.669Z,43.45
2018-02-15T22:05:53.197Z,44.60
2018-02-15T22:08:21.004Z,55.97
2018-02-15T22:10:49.526Z,47.85
2018-02-15T22:13:17.293Z,46.75
2018-02-15T22:15:45.097Z,47.78
2018-02-15T22:18:12.860Z,39.22
2018-02-15T22:20:40.626Z,40.75
2018-02-15T22:23:08.434Z,43.05
2018-02-15T22:25:36.188Z,46.40
2018-02-15T22:28:03.945Z,44.53
2018-02-15T22:30:31.759Z,43.83
2018-02-15T22:32:59.509Z,44.17
2018-02-15T22:35:27.282Z,44.33
2018-02-15T22:37:55.117Z,49.03
2018-02-15T22:40:22.862Z,45.47
2018-02-15T22:42:50.610Z,44.72
2018-02-15T22:45:18.419Z,50.40
2018-02-15T22:47:46.174Z,38.70
2018-02-15T22:50:13.930Z,38.58
2018-02-15T22:52:41.759Z,47.55
2018-02-15T22:55:09.520Z,42.67
2018-02-15T22:57:37.268Z,39.15
2018-02-15T23:00:05.850Z,40.83
2018-02-15T23:02:34.370Z,46.05
2018-02-15T23:05:02.128Z,40.47
2018-02-15T23:07:29.951Z,37.38
2018-02-15T23:09:58.506Z,41.78
2018-02-15T23:12:26.254Z,40.85
2018-02-15T23:14:54.107Z,39.42
2018-02-15T23:17:21.865Z,42.88
2018-02-15T23:19:49.617Z,42.15
2018-02-15T23:22:17.416Z,37.72
2018-02-15T23:24:45.165Z,47.75
2018-02-15T23:27:12.926Z,43.30
2018-02-15T23:29:40.734Z,43.85
2018-02-15T23:32:09.252Z,46.92
2018-02-15T23:34:37.003Z,44.70
2018-02-15T23:37:04.804Z,49.97
2018-02-15T23:39:32.561Z,41.60
2018-02-15T23:42:01.105Z,41.78
2018-02-15T23:44:28.933Z,50.12
2018-02-15T23:46:57.461Z,44.08
2018-02-15T23:49:25.208Z,41.35
2018-02-15T23:51:53.018Z,48.03
2018-02-15T23:54:20.799Z,47.58
2018-02-15T23:56:49.312Z,44.75
2018-02-15T23:59:17.213Z,48.13
